Time;durP1;ratioP1;P1;durP2;ratioP2;P2;SDS_P1;SDS_P2;PMS_P1;PMS_P2;Temp;Humidity;BMP_temperature;BMP_pressure;BME280_temperature;BME280_humidity;BME280_pressure;Samples;Min_cycle;Max_cycle;Signal;HPM_P1;HPM_P2
2023/05/16 00:00:52;;;;;;;;;;;10.40;81.80;;;;;;5073958;28;19920;-35
2023/05/16 00:03:18;;;;;;;;;;;10.40;81.90;;;;;;5073742;28;19924;-35
2023/05/16 00:05:43;;;;;;;;;;;10.40;81.80;;;;;;5073824;28;19999;-35
2023/05/16 00:08:09;;;;;;;;;;;10.50;81.90;;;;;;5073729;28;19959;-35
2023/05/16 00:10:35;;;;;;;;;;;10.50;81.70;;;;;;5073627;28;20280;-35
2023/05/16 00:13:00;;;;;;;;;;;10.50;81.70;;;;;;5073833;28;20364;-35
2023/05/16 00:15:28;;;;;;;;;;;10.50;81.60;;;;;;5073479;28;19919;-34
2023/05/16 00:17:57;;;;;;;;;;;10.40;81.50;;;;;;5073174;28;19912;-34
2023/05/16 00:20:23;;;;;;;;;;;10.40;81.50;;;;;;5073396;28;20308;-33
2023/05/16 00:22:49;;;;;;;;;;;10.40;81.50;;;;;;5073275;28;19923;-35
2023/05/16 00:25:15;;;;;;;;;;;10.30;81.40;;;;;;5073300;28;19912;-35
2023/05/16 00:27:40;;;;;;;;;;;10.30;81.40;;;;;;5071984;28;20311;-34
2023/05/16 00:30:06;;;;;;;;;;;10.30;81.40;;;;;;5073124;28;19924;-34
2023/05/16 00:32:31;;;;;;;;;;;10.20;81.30;;;;;;5073183;28;20006;-35
2023/05/16 00:34:57;;;;;;;;;;;10.20;81.40;;;;;;5073286;28;19913;-35
2023/05/16 00:37:23;;;;;;;;;;;10.20;82.00;;;;;;5073244;28;19919;-35
2023/05/16 00:39:48;;;;;;;;;;;10.10;81.50;;;;;;5071682;28;20205;-35
2023/05/16 00:42:14;;;;;;;;;;;10.10;81.50;;;;;;5073107;28;19963;-35
2023/05/16 00:44:40;;;;;;;;;;;10.00;81.50;;;;;;5073012;28;19913;-29
2023/05/16 00:47:05;;;;;;;;;;;10.00;81.60;;;;;;5073263;28;19912;-33
2023/05/16 00:49:31;;;;;;;;;;;9.90;81.50;;;;;;5073187;28;20352;-28
2023/05/16 00:51:57;;;;;;;;;;;9.90;81.60;;;;;;5073004;28;19913;-30
2023/05/16 00:54:25;;;;;;;;;;;9.90;81.70;;;;;;5072967;28;19939;-37
2023/05/16 00:56:50;;;;;;;;;;;9.90;81.70;;;;;;5073072;28;19972;-30
2023/05/16 00:59:16;;;;;;;;;;;9.80;81.70;;;;;;5072834;28;19916;-29
2023/05/16 01:01:44;;;;;;;;;;;9.80;81.70;;;;;;5072756;28;19987;-29
2023/05/16 01:04:09;;;;;;;;;;;9.80;81.80;;;;;;5072778;28;19917;-28
2023/05/16 01:06:35;;;;;;;;;;;9.70;81.80;;;;;;5072703;28;20330;-29
2023/05/16 01:09:00;;;;;;;;;;;9.70;81.80;;;;;;5072476;28;19913;-29
2023/05/16 01:11:30;;;;;;;;;;;9.70;81.80;;;;;;5072608;28;19916;-29
2023/05/16 01:14:13;;;;;;;;;;;9.70;81.80;;;;;;5072643;28;19965;-30
2023/05/16 01:16:43;;;;;;;;;;;9.60;81.70;;;;;;5072572;28;19918;-29
2023/05/16 01:19:27;;;;;;;;;;;9.60;81.70;;;;;;5072755;28;19912;-30
2023/05/16 01:22:04;;;;;;;;;;;9.50;81.70;;;;;;5072400;28;19927;-30
2023/05/16 01:24:38;;;;;;;;;;;9.50;81.70;;;;;;5072563;28;19912;-31
2023/05/16 01:27:04;;;;;;;;;;;9.40;81.70;;;;;;5072447;28;19955;-30
2023/05/16 01:29:30;;;;;;;;;;;9.30;81.80;;;;;;5071616;28;19967;-29
2023/05/16 01:31:57;;;;;;;;;;;9.40;81.90;;;;;;5072440;28;19963;-34
2023/05/16 01:34:22;;;;;;;;;;;9.30;81.90;;;;;;5072561;28;19920;-29
2023/05/16 01:36:56;;;;;;;;;;;9.30;81.90;;;;;;5072219;28;20361;-32
2023/05/16 01:39:28;;;;;;;;;;;9.30;81.90;;;;;;5072155;28;19992;-30
2023/05/16 01:41:56;;;;;;;;;;;9.20;81.90;;;;;;5072318;28;19917;-31
2023/05/16 01:44:31;;;;;;;;;;;9.20;81.90;;;;;;5072292;28;19965;-29
2023/05/16 01:46:58;;;;;;;;;;;9.20;81.90;;;;;;5072318;28;19974;-30
2023/05/16 01:49:34;;;;;;;;;;;9.10;81.90;;;;;;5072238;28;19940;-31
2023/05/16 01:52:01;;;;;;;;;;;9.10;81.90;;;;;;5072208;28;19912;-28
2023/05/16 01:54:29;;;;;;;;;;;9.10;81.90;;;;;;5072102;28;19974;-29
2023/05/16 01:56:55;;;;;;;;;;;9.10;82.00;;;;;;5072291;28;19912;-30
2023/05/16 01:59:22;;;;;;;;;;;9.00;81.90;;;;;;5072034;28;19912;-29
2023/05/16 02:01:47;;;;;;;;;;;9.00;82.00;;;;;;5071917;28;19923;-30
2023/05/16 02:04:14;;;;;;;;;;;9.00;82.00;;;;;;5071995;28;19912;-30
2023/05/16 02:06:43;;;;;;;;;;;8.90;81.90;;;;;;5072128;28;20016;-29
2023/05/16 02:09:08;;;;;;;;;;;9.00;82.00;;;;;;5071978;28;20023;-29
2023/05/16 02:11:34;;;;;;;;;;;8.90;82.00;;;;;;5071912;28;19948;-31
2023/05/16 02:13:59;;;;;;;;;;;9.00;82.00;;;;;;5071959;28;19912;-32
2023/05/16 02:16:25;;;;;;;;;;;8.90;81.90;;;;;;5071991;28;20376;-30
2023/05/16 02:18:50;;;;;;;;;;;8.90;81.90;;;;;;5072041;28;19939;-29
2023/05/16 02:21:16;;;;;;;;;;;8.90;82.00;;;;;;5071892;28;19917;-31
2023/05/16 02:23:41;;;;;;;;;;;8.90;82.00;;;;;;5071919;28;19912;-29
2023/05/16 02:26:07;;;;;;;;;;;8.90;82.00;;;;;;5071737;28;19912;-28
2023/05/16 02:28:32;;;;;;;;;;;8.90;82.00;;;;;;5071809;28;19913;-31
2023/05/16 02:31:00;;;;;;;;;;;8.90;82.00;;;;;;5071683;28;20041;-28
2023/05/16 02:33:27;;;;;;;;;;;8.90;82.00;;;;;;5071569;28;19917;-28
2023/05/16 02:35:52;;;;;;;;;;;8.90;82.00;;;;;;5071774;28;20437;-33
2023/05/16 02:38:19;;;;;;;;;;;8.90;82.00;;;;;;5071675;28;20011;-27
2023/05/16 02:40:48;;;;;;;;;;;8.90;81.90;;;;;;5072592;28;20108;-30
2023/05/16 02:43:13;;;;;;;;;;;8.90;81.90;;;;;;5075200;28;19916;-27
2023/05/16 02:45:39;;;;;;;;;;;8.90;81.80;;;;;;5075279;28;19931;-28
2023/05/16 02:48:05;;;;;;;;;;;8.80;81.80;;;;;;5075032;28;20391;-27
2023/05/16 02:50:30;;;;;;;;;;;8.80;81.90;;;;;;5075126;28;20059;-28
2023/05/16 02:52:58;;;;;;;;;;;8.80;82.00;;;;;;5075226;28;19965;-28
2023/05/16 02:55:29;;;;;;;;;;;8.80;82.00;;;;;;5075085;28;20387;-27
2023/05/16 02:57:55;;;;;;;;;;;8.80;82.00;;;;;;5073655;28;20299;-30
2023/05/16 03:00:21;;;;;;;;;;;8.80;82.10;;;;;;5075026;28;20003;-27
2023/05/16 03:02:47;;;;;;;;;;;8.80;82.10;;;;;;5074899;28;19916;-37
2023/05/16 03:05:13;;;;;;;;;;;8.80;82.10;;;;;;5074831;28;19913;-29
2023/05/16 03:07:38;;;;;;;;;;;8.80;82.00;;;;;;5074721;28;20303;-37
2023/05/16 03:10:04;;;;;;;;;;;8.80;82.10;;;;;;5074568;28;19919;-27
2023/05/16 03:12:30;;;;;;;;;;;8.80;82.10;;;;;;5074942;28;19918;-31
2023/05/16 03:14:55;;;;;;;;;;;8.80;82.20;;;;;;5074647;28;20379;-28
2023/05/16 03:17:21;;;;;;;;;;;8.80;82.10;;;;;;5074584;28;20022;-28
2023/05/16 03:19:46;;;;;;;;;;;8.80;82.20;;;;;;5074464;28;20352;-28
2023/05/16 03:22:12;;;;;;;;;;;8.70;82.10;;;;;;5074521;28;19916;-29
2023/05/16 03:24:37;;;;;;;;;;;8.80;82.10;;;;;;5074398;28;19961;-29
2023/05/16 03:27:03;;;;;;;;;;;8.80;82.10;;;;;;5074465;28;20582;-29
2023/05/16 03:29:29;;;;;;;;;;;8.70;82.00;;;;;;5074152;28;20206;-30
2023/05/16 03:31:55;;;;;;;;;;;8.70;82.00;;;;;;5074360;28;19913;-28
2023/05/16 03:34:20;;;;;;;;;;;8.70;82.10;;;;;;5074408;28;19920;-27
2023/05/16 03:36:47;;;;;;;;;;;8.70;82.10;;;;;;5074270;28;19947;-30
2023/05/16 03:39:12;;;;;;;;;;;8.80;82.10;;;;;;5074362;28;20299;-29
2023/05/16 03:41:38;;;;;;;;;;;8.90;82.00;;;;;;5074117;28;20078;-33
2023/05/16 03:44:03;;;;;;;;;;;8.90;81.90;;;;;;5073713;28;19920;-28
2023/05/16 03:46:29;;;;;;;;;;;8.90;81.80;;;;;;5074156;28;19913;-29
2023/05/16 03:48:54;;;;;;;;;;;9.00;81.70;;;;;;5074119;28;19919;-29
2023/05/16 03:51:20;;;;;;;;;;;9.00;81.70;;;;;;5073983;28;19912;-28
2023/05/16 03:53:46;;;;;;;;;;;9.00;81.60;;;;;;5071970;28;19916;-29
2023/05/16 03:56:11;;;;;;;;;;;9.10;81.50;;;;;;5073803;28;19973;-28
2023/05/16 03:58:36;;;;;;;;;;;9.10;81.40;;;;;;5073787;28;19930;-29
2023/05/16 04:01:02;;;;;;;;;;;9.20;81.40;;;;;;5074131;28;19996;-29
2023/05/16 04:03:29;;;;;;;;;;;9.20;81.30;;;;;;5073668;28;19959;-28
2023/05/16 04:05:55;;;;;;;;;;;9.20;81.20;;;;;;5073610;28;19912;-29
2023/05/16 04:08:20;;;;;;;;;;;9.30;81.10;;;;;;5073753;28;19912;-28
2023/05/16 04:10:46;;;;;;;;;;;9.40;81.00;;;;;;5073617;28;19917;-29
2023/05/16 04:13:11;;;;;;;;;;;9.40;81.00;;;;;;5073538;28;19913;-28
2023/05/16 04:15:37;;;;;;;;;;;9.40;80.90;;;;;;5073470;28;20303;-29
2023/05/16 04:18:03;;;;;;;;;;;9.40;80.80;;;;;;5073474;28;19995;-30
2023/05/16 04:20:29;;;;;;;;;;;9.40;80.80;;;;;;5073375;28;20350;-30
2023/05/16 04:22:55;;;;;;;;;;;9.40;80.80;;;;;;5073215;28;19916;-28
2023/05/16 04:25:20;;;;;;;;;;;9.40;80.80;;;;;;5073313;28;19912;-29
2023/05/16 04:27:46;;;;;;;;;;;9.50;80.80;;;;;;5073230;28;19963;-30
2023/05/16 04:30:13;;;;;;;;;;;9.50;80.80;;;;;;5073281;28;20252;-28
2023/05/16 04:32:39;;;;;;;;;;;9.50;80.80;;;;;;5073348;28;19963;-30
2023/05/16 04:35:04;;;;;;;;;;;9.50;80.70;;;;;;5073013;28;20293;-28
2023/05/16 04:37:30;;;;;;;;;;;9.60;80.70;;;;;;5073205;28;19963;-28
2023/05/16 04:39:56;;;;;;;;;;;9.60;80.60;;;;;;5073205;28;19917;-30
2023/05/16 04:42:21;;;;;;;;;;;9.50;80.60;;;;;;5072924;28;19916;-31
2023/05/16 04:44:47;;;;;;;;;;;9.50;80.70;;;;;;5073035;28;20253;-29
2023/05/16 04:47:13;;;;;;;;;;;9.60;80.70;;;;;;5072974;28;19974;-28
2023/05/16 04:49:38;;;;;;;;;;;9.60;80.70;;;;;;5072937;28;19940;-29
2023/05/16 04:52:05;;;;;;;;;;;9.60;80.80;;;;;;5072930;28;19962;-29
2023/05/16 04:54:31;;;;;;;;;;;9.60;80.80;;;;;;5072931;28;19966;-30
2023/05/16 04:56:56;;;;;;;;;;;9.60;80.70;;;;;;5073011;28;20322;-28
2023/05/16 04:59:22;;;;;;;;;;;9.70;80.70;;;;;;5072816;28;19913;-28
2023/05/16 05:01:47;;;;;;;;;;;9.70;80.70;;;;;;5072770;28;19939;-29
2023/05/16 05:04:13;;;;;;;;;;;9.80;80.60;;;;;;5072065;28;19913;-28
2023/05/16 05:06:38;;;;;;;;;;;9.80;80.50;;;;;;5073057;28;19932;-33
2023/05/16 05:09:04;;;;;;;;;;;9.80;80.40;;;;;;5072739;28;20280;-31
2023/05/16 05:11:30;;;;;;;;;;;9.80;80.40;;;;;;5072829;28;19939;-29
2023/05/16 05:13:56;;;;;;;;;;;9.90;80.40;;;;;;5072798;28;19966;-30
2023/05/16 05:16:21;;;;;;;;;;;10.00;80.40;;;;;;5071351;28;19908;-28
2023/05/16 05:18:47;;;;;;;;;;;10.00;80.30;;;;;;5072550;28;19992;-28
2023/05/16 05:21:12;;;;;;;;;;;10.10;80.20;;;;;;5072516;28;20406;-29
2023/05/16 05:23:38;;;;;;;;;;;10.20;80.00;;;;;;5072461;28;19920;-29
2023/05/16 05:26:04;;;;;;;;;;;10.30;79.90;;;;;;5070952;28;19908;-26
2023/05/16 05:28:29;;;;;;;;;;;10.30;79.80;;;;;;5072246;28;19908;-26
2023/05/16 05:30:55;;;;;;;;;;;10.40;79.60;;;;;;5071016;28;19923;-26
2023/05/16 05:33:24;;;;;;;;;;;10.40;79.60;;;;;;5072588;28;20087;-27
2023/05/16 05:35:52;;;;;;;;;;;10.50;79.60;;;;;;5072604;28;20443;-28
2023/05/16 05:38:18;;;;;;;;;;;10.60;79.40;;;;;;5072332;28;19920;-26
2023/05/16 05:40:44;;;;;;;;;;;10.60;79.20;;;;;;5072404;28;19913;-31
2023/05/16 05:43:10;;;;;;;;;;;10.70;79.20;;;;;;5072160;28;19920;-27
2023/05/16 05:45:36;;;;;;;;;;;10.70;79.10;;;;;;5072448;28;20063;-28
2023/05/16 05:48:01;;;;;;;;;;;10.80;79.00;;;;;;5072133;28;19912;-25
2023/05/16 05:50:27;;;;;;;;;;;10.80;78.60;;;;;;5072135;28;19912;-26
2023/05/16 05:52:53;;;;;;;;;;;10.90;78.50;;;;;;5072275;28;19912;-29
2023/05/16 05:55:19;;;;;;;;;;;10.90;78.30;;;;;;5072162;28;20890;-32
2023/05/16 05:57:44;;;;;;;;;;;10.90;78.40;;;;;;5070691;28;19924;-29
2023/05/16 06:00:10;;;;;;;;;;;10.90;78.40;;;;;;5072303;28;19969;-27
2023/05/16 06:02:36;;;;;;;;;;;10.80;78.20;;;;;;5072122;28;19924;-26
2023/05/16 06:05:01;;;;;;;;;;;10.90;78.20;;;;;;5072184;28;19996;-27
2023/05/16 06:07:27;;;;;;;;;;;10.90;78.20;;;;;;5071928;28;20391;-27
2023/05/16 06:09:52;;;;;;;;;;;10.90;78.10;;;;;;5071530;28;19912;-27
2023/05/16 06:12:18;;;;;;;;;;;10.80;77.90;;;;;;5071969;28;20285;-26
2023/05/16 06:14:43;;;;;;;;;;;10.80;78.00;;;;;;5072081;28;19912;-28
2023/05/16 06:17:09;;;;;;;;;;;10.80;78.00;;;;;;5075396;28;19912;-26
2023/05/16 06:19:34;;;;;;;;;;;10.90;78.00;;;;;;5076070;28;20322;-27
2023/05/16 06:22:00;;;;;;;;;;;10.90;78.10;;;;;;5075716;28;19927;-27
2023/05/16 06:24:25;;;;;;;;;;;11.00;78.00;;;;;;5075759;28;19917;-26
2023/05/16 06:26:51;;;;;;;;;;;11.00;77.70;;;;;;5074296;28;19918;-29
2023/05/16 06:29:16;;;;;;;;;;;11.10;77.70;;;;;;5075568;28;19928;-30
2023/05/16 06:31:42;;;;;;;;;;;11.00;77.60;;;;;;5075772;28;19930;-27
2023/05/16 06:34:08;;;;;;;;;;;11.00;77.70;;;;;;5075796;28;19919;-33
2023/05/16 06:36:33;;;;;;;;;;;10.90;77.50;;;;;;5075673;28;19919;-26
2023/05/16 06:38:58;;;;;;;;;;;10.90;77.60;;;;;;5075498;28;19919;-29
2023/05/16 06:41:25;;;;;;;;;;;10.90;77.70;;;;;;5075267;28;19995;-26
2023/05/16 06:43:51;;;;;;;;;;;10.90;77.60;;;;;;5075470;28;19912;-28
2023/05/16 06:46:16;;;;;;;;;;;10.80;77.40;;;;;;5075328;28;19923;-29
2023/05/16 06:48:42;;;;;;;;;;;10.70;77.50;;;;;;5075398;28;20236;-27
2023/05/16 06:51:08;;;;;;;;;;;10.70;77.70;;;;;;5075260;28;19912;-37
2023/05/16 06:53:34;;;;;;;;;;;10.70;77.80;;;;;;5075266;28;20401;-30
2023/05/16 06:56:00;;;;;;;;;;;10.70;77.90;;;;;;5075288;28;19916;-31
2023/05/16 06:58:26;;;;;;;;;;;10.70;77.90;;;;;;5075163;28;19939;-29
2023/05/16 07:00:51;;;;;;;;;;;10.70;77.90;;;;;;5073731;28;19916;-27
2023/05/16 07:03:17;;;;;;;;;;;10.70;77.80;;;;;;5075131;28;19923;-27
2023/05/16 07:05:43;;;;;;;;;;;10.80;77.70;;;;;;5075139;28;19967;-29
2023/05/16 07:08:11;;;;;;;;;;;10.80;77.60;;;;;;5075226;28;19966;-29
2023/05/16 07:10:37;;;;;;;;;;;10.90;77.60;;;;;;5075088;28;20303;-27
2023/05/16 07:13:03;;;;;;;;;;;11.00;77.60;;;;;;5075116;28;19919;-26
2023/05/16 07:15:29;;;;;;;;;;;11.20;77.30;;;;;;5074956;28;19912;-44
2023/05/16 07:17:56;;;;;;;;;;;11.40;76.60;;;;;;5074928;28;20434;-26
2023/05/16 07:20:21;;;;;;;;;;;11.60;76.30;;;;;;5074828;28;19986;-30
2023/05/16 07:22:47;;;;;;;;;;;11.80;75.90;;;;;;5074946;28;19916;-30
2023/05/16 07:25:13;;;;;;;;;;;12.00;75.50;;;;;;5073440;28;19923;-29
2023/05/16 07:27:40;;;;;;;;;;;12.20;74.30;;;;;;5072296;28;20264;-29
2023/05/16 07:30:07;;;;;;;;;;;12.30;73.00;;;;;;5074477;28;19924;-29
2023/05/16 07:32:32;;;;;;;;;;;12.40;69.30;;;;;;5074591;28;19912;-30
2023/05/16 07:34:58;;;;;;;;;;;12.30;69.60;;;;;;5074729;28;20284;-30
2023/05/16 07:37:24;;;;;;;;;;;12.30;70.60;;;;;;5074509;28;19913;-30
2023/05/16 07:39:49;;;;;;;;;;;12.40;71.10;;;;;;5073115;28;19913;-31
2023/05/16 07:42:15;;;;;;;;;;;12.40;70.30;;;;;;5074571;28;19944;-31
2023/05/16 07:44:40;;;;;;;;;;;12.50;69.50;;;;;;5074890;28;20059;-27
2023/05/16 07:47:06;;;;;;;;;;;12.50;70.10;;;;;;5074471;28;19916;-27
2023/05/16 07:49:31;;;;;;;;;;;12.50;68.80;;;;;;5074385;28;19913;-27
2023/05/16 07:51:57;;;;;;;;;;;12.50;69.00;;;;;;5074376;28;19957;-29
2023/05/16 07:54:22;;;;;;;;;;;12.50;68.60;;;;;;5074048;28;19920;-27
2023/05/16 07:56:48;;;;;;;;;;;12.50;68.50;;;;;;5074165;28;19970;-27
2023/05/16 07:59:13;;;;;;;;;;;12.50;68.80;;;;;;5074131;28;19966;-27
2023/05/16 08:01:39;;;;;;;;;;;12.50;68.90;;;;;;5073961;28;19920;-28
2023/05/16 08:04:04;;;;;;;;;;;12.50;67.10;;;;;;5074142;28;19999;-27
2023/05/16 08:06:30;;;;;;;;;;;12.40;67.60;;;;;;5074073;28;20391;-30
2023/05/16 08:08:56;;;;;;;;;;;12.30;67.70;;;;;;5072689;28;19923;-29
2023/05/16 08:11:21;;;;;;;;;;;12.30;67.40;;;;;;5073703;28;20329;-27
2023/05/16 08:13:47;;;;;;;;;;;12.30;67.70;;;;;;5073860;28;19912;-30
2023/05/16 08:16:12;;;;;;;;;;;12.40;66.90;;;;;;5073738;28;19912;-31
2023/05/16 08:18:38;;;;;;;;;;;12.50;64.70;;;;;;5073775;28;20368;-30
2023/05/16 08:21:04;;;;;;;;;;;12.70;65.70;;;;;;5073689;28;19962;-29
2023/05/16 08:23:29;;;;;;;;;;;12.80;65.30;;;;;;5073460;28;19995;-30
2023/05/16 08:25:55;;;;;;;;;;;13.00;65.20;;;;;;5074002;28;20275;-27
2023/05/16 08:28:20;;;;;;;;;;;13.10;64.90;;;;;;5073406;28;19912;-29
2023/05/16 08:30:46;;;;;;;;;;;13.10;65.10;;;;;;5073319;28;20388;-31
2023/05/16 08:33:12;;;;;;;;;;;13.00;65.20;;;;;;5073548;28;19962;-32
2023/05/16 08:35:41;;;;;;;;;;;12.90;65.80;;;;;;5073623;28;19913;-31
2023/05/16 08:38:06;;;;;;;;;;;12.80;66.30;;;;;;5073247;28;20237;-29
2023/05/16 08:40:32;;;;;;;;;;;12.70;66.90;;;;;;5073432;28;19912;-29
2023/05/16 08:42:58;;;;;;;;;;;12.70;66.80;;;;;;5073265;28;19916;-33
2023/05/16 08:45:23;;;;;;;;;;;12.70;66.30;;;;;;5073236;28;19912;-33
2023/05/16 08:47:49;;;;;;;;;;;12.80;66.90;;;;;;5073190;28;19942;-30
2023/05/16 08:50:14;;;;;;;;;;;13.00;66.90;;;;;;5073275;28;19913;-35
2023/05/16 08:52:41;;;;;;;;;;;13.20;65.80;;;;;;5073148;28;19920;-31
2023/05/16 08:55:08;;;;;;;;;;;13.30;65.80;;;;;;5073224;28;19938;-30
2023/05/16 08:57:34;;;;;;;;;;;13.20;65.20;;;;;;5073115;28;19995;-39
2023/05/16 08:59:59;;;;;;;;;;;13.10;64.80;;;;;;5073203;28;19959;-32
2023/05/16 09:02:26;;;;;;;;;;;13.00;64.40;;;;;;5072849;28;19920;-30
2023/05/16 09:04:51;;;;;;;;;;;13.00;63.60;;;;;;5072941;28;19913;-29
2023/05/16 09:07:17;;;;;;;;;;;13.00;65.10;;;;;;5073120;28;20012;-29
2023/05/16 09:09:42;;;;;;;;;;;13.10;65.20;;;;;;5072819;28;20058;-33
2023/05/16 09:12:08;;;;;;;;;;;13.30;64.80;;;;;;5073010;28;19919;-30
2023/05/16 09:14:35;;;;;;;;;;;13.50;64.40;;;;;;5072876;28;20011;-31
2023/05/16 09:17:04;;;;;;;;;;;13.70;62.10;;;;;;5071311;28;19912;-32
2023/05/16 09:19:39;;;;;;;;;;;13.80;61.10;;;;;;5072751;28;20276;-33
2023/05/16 09:22:07;;;;;;;;;;;13.80;61.20;;;;;;5072841;28;19937;-31
2023/05/16 09:24:36;;;;;;;;;;;13.80;62.80;;;;;;5072815;28;20003;-30
2023/05/16 09:27:09;;;;;;;;;;;13.80;62.20;;;;;;5072646;28;19912;-31
2023/05/16 09:29:35;;;;;;;;;;;13.80;62.00;;;;;;5072342;28;19966;-30
2023/05/16 09:32:04;;;;;;;;;;;13.70;61.20;;;;;;5072420;28;19913;-30
2023/05/16 09:34:29;;;;;;;;;;;13.50;61.50;;;;;;5072602;28;19920;-35
2023/05/16 09:36:55;;;;;;;;;;;13.40;61.80;;;;;;5072979;28;19913;-29
2023/05/16 09:39:20;;;;;;;;;;;13.30;62.20;;;;;;5072387;28;19912;-32
2023/05/16 09:41:50;;;;;;;;;;;13.40;61.80;;;;;;5072332;28;19966;-32
2023/05/16 09:44:17;;;;;;;;;;;13.30;62.30;;;;;;5072394;28;20003;-30
2023/05/16 09:46:42;;;;;;;;;;;13.40;63.00;;;;;;5072459;28;19913;-33
2023/05/16 09:49:11;;;;;;;;;;;13.50;63.10;;;;;;5072406;28;19918;-32
2023/05/16 09:51:38;;;;;;;;;;;13.50;61.10;;;;;;5077672;28;20398;-32
2023/05/16 09:54:06;;;;;;;;;;;13.70;62.50;;;;;;5079020;28;20356;-31
2023/05/16 09:56:31;;;;;;;;;;;13.90;62.60;;;;;;5079019;28;19974;-30
2023/05/16 09:58:57;;;;;;;;;;;14.20;62.00;;;;;;5079175;28;20396;-29
2023/05/16 10:01:23;;;;;;;;;;;14.30;61.70;;;;;;5079235;28;20393;-30
2023/05/16 10:03:49;;;;;;;;;;;14.40;61.70;;;;;;5078620;28;19916;-31
2023/05/16 10:06:15;;;;;;;;;;;14.40;60.70;;;;;;5079256;28;19919;-29
2023/05/16 10:08:42;;;;;;;;;;;14.40;60.70;;;;;;5078802;28;19966;-31
2023/05/16 10:11:08;;;;;;;;;;;14.40;61.10;;;;;;5078881;28;19917;-29
2023/05/16 10:13:34;;;;;;;;;;;14.40;60.50;;;;;;5078732;28;20429;-28
2023/05/16 10:16:04;;;;;;;;;;;14.40;59.40;;;;;;5078718;28;19913;-28
2023/05/16 10:18:30;;;;;;;;;;;14.50;60.10;;;;;;5078803;28;19919;-29
2023/05/16 10:20:56;;;;;;;;;;;14.60;60.00;;;;;;5078772;28;19967;-29
2023/05/16 10:23:24;;;;;;;;;;;14.60;59.10;;;;;;5078587;28;19917;-31
2023/05/16 10:25:50;;;;;;;;;;;14.50;59.70;;;;;;5078770;28;19952;-34
2023/05/16 10:28:16;;;;;;;;;;;14.40;59.30;;;;;;5078651;28;19966;-32
2023/05/16 10:30:43;;;;;;;;;;;14.40;59.80;;;;;;5078479;28;19921;-31
2023/05/16 10:33:15;;;;;;;;;;;14.50;58.60;;;;;;5078244;28;19920;-29
2023/05/16 10:35:41;;;;;;;;;;;14.70;58.00;;;;;;5077954;28;19988;-30
2023/05/16 10:38:08;;;;;;;;;;;14.80;56.80;;;;;;5078099;28;20440;-33
2023/05/16 10:40:34;;;;;;;;;;;14.70;57.40;;;;;;5078133;28;19955;-30
2023/05/16 10:43:01;;;;;;;;;;;14.60;58.20;;;;;;5077960;28;19923;-30
2023/05/16 10:45:27;;;;;;;;;;;14.60;57.10;;;;;;5076798;28;19947;-33
2023/05/16 10:47:57;;;;;;;;;;;14.60;57.80;;;;;;5077898;28;19920;-29
2023/05/16 10:50:29;;;;;;;;;;;14.80;57.10;;;;;;5078005;28;19913;-31
2023/05/16 10:52:55;;;;;;;;;;;14.90;56.20;;;;;;5077916;28;19913;-32
2023/05/16 10:55:21;;;;;;;;;;;15.20;55.40;;;;;;5078149;28;19913;-35
2023/05/16 10:57:46;;;;;;;;;;;15.30;55.00;;;;;;5077754;28;19920;-30
2023/05/16 11:00:21;;;;;;;;;;;15.30;52.20;;;;;;5077684;28;20224;-30
2023/05/16 11:02:46;;;;;;;;;;;15.10;54.30;;;;;;5075343;28;19924;-27
2023/05/16 11:05:16;;;;;;;;;;;15.00;55.50;;;;;;5074563;28;20337;-28
2023/05/16 11:07:42;;;;;;;;;;;14.80;56.30;;;;;;5074385;28;19962;-28
2023/05/16 11:10:08;;;;;;;;;;;14.90;55.90;;;;;;5074258;28;19959;-29
2023/05/16 11:12:37;;;;;;;;;;;14.90;56.50;;;;;;5074482;28;19999;-28
2023/05/16 11:15:16;;;;;;;;;;;15.10;56.60;;;;;;5074353;28;19916;-32
2023/05/16 11:17:41;;;;;;;;;;;15.20;54.40;;;;;;5074373;28;20003;-27
2023/05/16 11:20:23;;;;;;;;;;;15.30;53.00;;;;;;5074630;28;20011;-37
2023/05/16 11:22:48;;;;;;;;;;;15.50;53.60;;;;;;5074169;28;19916;-35
2023/05/16 11:25:14;;;;;;;;;;;15.70;51.30;;;;;;5074212;28;20287;-28
2023/05/16 11:27:44;;;;;;;;;;;15.90;52.30;;;;;;5074505;28;19913;-28
2023/05/16 11:30:10;;;;;;;;;;;16.00;50.90;;;;;;5072574;28;19920;-30
2023/05/16 11:32:37;;;;;;;;;;;16.00;51.00;;;;;;5073893;28;20365;-27
2023/05/16 11:35:04;;;;;;;;;;;16.10;49.80;;;;;;5074111;28;20376;-28
2023/05/16 11:37:29;;;;;;;;;;;16.10;51.30;;;;;;5073922;28;19946;-28
2023/05/16 11:39:59;;;;;;;;;;;16.10;51.40;;;;;;5074322;28;19971;-28
2023/05/16 11:42:27;;;;;;;;;;;16.10;51.70;;;;;;5073890;28;19923;-28
2023/05/16 11:45:03;;;;;;;;;;;16.10;51.90;;;;;;5073709;28;20015;-27
2023/05/16 11:47:29;;;;;;;;;;;16.10;52.10;;;;;;5073734;28;19919;-29
2023/05/16 11:49:56;;;;;;;;;;;16.00;51.40;;;;;;5074157;28;20434;-29
2023/05/16 11:52:22;;;;;;;;;;;16.00;50.60;;;;;;5072229;28;19978;-33
2023/05/16 11:54:47;;;;;;;;;;;15.80;50.00;;;;;;5073644;28;20014;-27
2023/05/16 11:57:13;;;;;;;;;;;15.70;50.70;;;;;;5073375;28;20356;-29
2023/05/16 11:59:38;;;;;;;;;;;15.80;51.20;;;;;;5073620;28;19912;-28
2023/05/16 12:02:04;;;;;;;;;;;15.80;51.40;;;;;;5073467;28;19916;-30
2023/05/16 12:04:30;;;;;;;;;;;16.00;52.00;;;;;;5073436;28;19912;-28
2023/05/16 12:07:00;;;;;;;;;;;16.10;52.40;;;;;;5072228;28;20418;-28
2023/05/16 12:09:25;;;;;;;;;;;16.10;52.20;;;;;;5073294;28;19917;-27
2023/05/16 12:11:51;;;;;;;;;;;16.10;51.70;;;;;;5073262;28;19913;-41
2023/05/16 12:14:17;;;;;;;;;;;16.10;52.10;;;;;;5072871;28;20459;-27
2023/05/16 12:16:45;;;;;;;;;;;16.00;51.00;;;;;;5073406;28;19982;-31
2023/05/16 12:19:11;;;;;;;;;;;15.90;50.20;;;;;;5073048;28;19948;-28
2023/05/16 12:21:37;;;;;;;;;;;15.90;51.20;;;;;;5073459;28;19917;-29
2023/05/16 12:24:03;;;;;;;;;;;15.90;51.00;;;;;;5073394;28;19919;-30
2023/05/16 12:26:32;;;;;;;;;;;16.00;50.50;;;;;;5073313;28;19912;-27
2023/05/16 12:29:01;;;;;;;;;;;16.20;51.10;;;;;;5072914;28;19958;-28
2023/05/16 12:31:27;;;;;;;;;;;16.30;51.00;;;;;;5073185;28;19913;-27
2023/05/16 12:33:54;;;;;;;;;;;16.30;50.70;;;;;;5073081;28;19913;-31
2023/05/16 12:36:20;;;;;;;;;;;16.30;50.90;;;;;;5072878;28;20408;-37
2023/05/16 12:38:46;;;;;;;;;;;16.30;51.20;;;;;;5072689;28;20216;-28
2023/05/16 12:41:20;;;;;;;;;;;16.30;51.10;;;;;;5071237;28;20320;-30
2023/05/16 12:43:46;;;;;;;;;;;16.20;49.20;;;;;;5072450;28;19927;-28
2023/05/16 12:46:11;;;;;;;;;;;16.10;50.00;;;;;;5072619;28;19912;-27
2023/05/16 12:48:38;;;;;;;;;;;16.00;50.80;;;;;;5072539;28;19912;-27
2023/05/16 12:51:14;;;;;;;;;;;15.90;50.80;;;;;;5072518;28;19912;-28
2023/05/16 12:53:41;;;;;;;;;;;15.90;51.50;;;;;;5072546;28;19912;-30
2023/05/16 12:56:07;;;;;;;;;;;15.80;51.40;;;;;;5072551;28;19912;-30
2023/05/16 12:58:32;;;;;;;;;;;15.80;51.30;;;;;;5072559;28;19919;-29
2023/05/16 13:01:02;;;;;;;;;;;15.70;51.50;;;;;;5072493;28;19917;-28
2023/05/16 13:03:28;;;;;;;;;;;15.70;52.20;;;;;;5072212;28;19966;-27
2023/05/16 13:05:53;;;;;;;;;;;15.70;52.60;;;;;;5072359;28;20228;-32
2023/05/16 13:08:19;;;;;;;;;;;15.70;52.70;;;;;;5072346;28;19912;-27
2023/05/16 13:10:44;;;;;;;;;;;15.70;53.00;;;;;;5072105;28;20003;-40
2023/05/16 13:13:10;;;;;;;;;;;15.60;53.50;;;;;;5072269;28;19916;-29
2023/05/16 13:15:36;;;;;;;;;;;15.50;53.90;;;;;;5070773;28;19931;-37
2023/05/16 13:18:02;;;;;;;;;;;15.50;54.40;;;;;;5072138;28;19913;-29
2023/05/16 13:20:28;;;;;;;;;;;15.60;54.40;;;;;;5072650;28;19913;-28
2023/05/16 13:22:54;;;;;;;;;;;15.80;54.40;;;;;;5072028;28;19933;-35
2023/05/16 13:25:20;;;;;;;;;;;16.00;53.10;;;;;;5071095;28;19919;-30
2023/05/16 13:27:48;;;;;;;;;;;16.00;53.40;;;;;;5070987;28;19917;-31
2023/05/16 13:30:13;;;;;;;;;;;16.10;53.40;;;;;;5071856;28;19927;-31
2023/05/16 13:32:40;;;;;;;;;;;16.20;53.10;;;;;;5071968;28;19912;-30
2023/05/16 13:35:05;;;;;;;;;;;16.20;52.30;;;;;;5071868;28;19912;-28
2023/05/16 13:37:31;;;;;;;;;;;16.10;53.20;;;;;;5071935;28;20390;-27
2023/05/16 13:39:56;;;;;;;;;;;16.10;53.00;;;;;;5071933;28;19918;-36
2023/05/16 13:42:22;;;;;;;;;;;16.10;53.20;;;;;;5071700;28;20014;-33
2023/05/16 13:44:48;;;;;;;;;;;16.00;53.60;;;;;;5071949;28;19955;-30
2023/05/16 13:47:13;;;;;;;;;;;15.80;54.70;;;;;;5071803;28;19920;-29
2023/05/16 13:49:38;;;;;;;;;;;15.70;54.10;;;;;;5071935;28;19920;-31
2023/05/16 13:52:05;;;;;;;;;;;15.60;54.60;;;;;;5072095;28;20003;-28
2023/05/16 13:54:30;;;;;;;;;;;15.40;55.20;;;;;;5071861;28;20014;-41
2023/05/16 13:56:56;;;;;;;;;;;15.30;55.60;;;;;;5071850;28;19967;-31
2023/05/16 13:59:22;;;;;;;;;;;15.20;55.90;;;;;;5071747;28;19912;-29
2023/05/16 14:01:47;;;;;;;;;;;15.10;56.20;;;;;;5071782;28;19920;-27
2023/05/16 14:04:13;;;;;;;;;;;15.00;56.30;;;;;;5070290;28;20411;-35
2023/05/16 14:06:38;;;;;;;;;;;14.80;56.70;;;;;;5071653;28;19920;-33
2023/05/16 14:09:03;;;;;;;;;;;14.70;57.20;;;;;;5071568;28;20058;-30
2023/05/16 14:11:29;;;;;;;;;;;14.60;57.40;;;;;;5071589;28;20372;-27
2023/05/16 14:13:55;;;;;;;;;;;14.50;57.70;;;;;;5071679;28;19956;-28
2023/05/16 14:16:20;;;;;;;;;;;14.40;57.90;;;;;;5071562;28;20444;-37